Tiempo atmosférico en la estación meteorológica de Castell, Platja d'Aro, Girona (14 m.)



Fecha
DESCASC
Temp. máxima en grados centígrados (hora)
DESCASC
Temp. mínima en grados centígrados (hora)
DESCASC
Temp. media en grados centígrados
DESCASC
Racha de viento máxima en m/sg (hora)
DESCASC
Velocidad máxima media en intervalos de 10 minutos(hora)
DESCASC
Precipitaciones diarias en mm
DESCASC
Precipitaciones de 00:00 a 06:00 en mm
DESCASC
Precipitaciones de 06:00 a 12:00 en mm
DESCASC
Precipitaciones de 12:00 a 18:00 en mm
DESCASC
Precipitaciones de 18:00 a 24:00 en mm
DESCASC
22-08-2019 -- (--) -- (--) -- 8.61 (09:40) 4.17 (09:40) -- -- 0 0 0
21-08-2019 -- (--) -- (--) -- 10.83 (04:30) 5.28 (04:30) -- -- -- -- --
20-08-2019 -- (--) -- (--) -- 13.89 (18:30) 6.39 (19:20) -- -- -- -- --
19-08-2019 -- (--) -- (--) -- 8.89 (15:10) 4.44 (14:40) -- -- -- -- --
18-08-2019 -- (--) -- (--) -- 9.72 (14:50) 4.72 (14:10) -- -- -- -- --
17-08-2019 -- (--) -- (--) -- 11.94 (15:20) 6.39 (15:50) -- -- -- -- --
16-08-2019 -- (--) -- (--) -- 10.28 (14:40) 5.56 (12:40) -- -- -- -- --
15-08-2019 -- (--) -- (--) -- 7.5 (15:00) 3.89 (14:20) -- -- -- -- --
14-08-2019 -- (--) -- (--) -- 7.5 (17:20) 3.89 (17:30) -- -- -- -- --
13-08-2019 -- (--) -- (--) -- 15 (01:40) 6.67 (01:40) -- -- -- -- --
12-08-2019 -- (--) -- (--) -- 12.5 (22:50) 6.11 (23:00) -- -- -- -- --
11-08-2019 -- (--) -- (--) -- 7.78 (19:20) 4.44 (14:30) -- -- -- -- --
10-08-2019 -- (--) -- (--) -- 8.06 (15:30) 4.17 (15:30) -- -- -- -- --
09-08-2019 -- (--) -- (--) -- 14.17 (15:50) 7.5 (15:00) -- -- -- -- --
08-08-2019 -- (--) -- (--) -- 9.44 (15:20) 4.44 (12:50) -- -- -- -- --
07-08-2019 -- (--) -- (--) -- 7.78 (16:30) 3.89 (12:40) -- -- -- -- --
06-08-2019 -- (--) -- (--) -- 5.83 (11:00) 2.78 (10:50) -- -- -- -- --
05-08-2019 -- (--) -- (--) -- 9.17 (15:20) 5 (15:20) -- -- -- -- --
04-08-2019 -- (--) -- (--) -- 6.67 (19:00) 3.33 (17:50) -- -- -- -- --
03-08-2019 -- (--) -- (--) -- 7.78 (17:50) 4.44 (16:20) -- -- -- -- --
02-08-2019 -- (--) -- (--) -- 6.94 (10:50) 3.89 (16:20) -- -- -- -- --
01-08-2019 -- (--) -- (--) -- 7.78 (08:40) 4.17 (15:20) -- -- -- -- --
31-07-2019 -- (--) -- (--) -- 7.78 (12:20) 3.89 (12:40) -- -- -- -- --
30-07-2019 -- (--) -- (--) -- 7.78 (12:30) 3.89 (12:30) -- -- -- -- --
29-07-2019 -- (--) -- (--) -- 8.33 (17:00) 4.72 (17:10) -- -- -- -- --
28-07-2019 -- (--) -- (--) -- 7.78 (16:50) 4.17 (15:40) -- -- -- -- --
27-07-2019 -- (--) -- (--) -- 10.83 (19:40) 4.44 (19:50) -- -- -- -- --
26-07-2019 -- (--) -- (--) -- 7.5 (18:40) 4.44 (18:40) -- -- -- -- --

Gráficas

Temp. máximas Temp. mínimas Temp. medias Precipitaciones Rachas de viento máximas Velocidades máximas media en intervalos de 10 minutos

Datos horarios

Fecha y hora oficial Temperatura (ºC) Velocidad del viento (km/h) Dirección del viento Racha (km/h) Dirección de racha Precipitación (mm) Presión (hPa) Tendencia (hPa) Humedad (%)
2019-08-24 23:00:00 23 2 Sudoeste 6 Oeste 0 -- -- 82
2019-08-24 22:00:00 24.7 2 Oeste 10 Noroeste 0 -- -- 78
2019-08-24 21:00:00 25.1 2 Sur 7 Oeste 0 -- -- 77
2019-08-24 20:00:00 25.7 3 Sur 12 Sur 0 -- -- 73
2019-08-24 19:00:00 26.1 8 Sur 21 Sudeste 0 -- -- 71
2019-08-24 18:00:00 27.2 8 Sur 22 Sur 0 -- -- 68
2019-08-24 17:00:00 27.5 9 Sudeste 24 Sudeste 0 -- -- 69
2019-08-24 16:00:00 28 12 Sur 22 Sur 0 -- -- 62
2019-08-24 15:00:00 27.9 9 Sur 21 Sudeste 0 -- -- 58
2019-08-24 14:00:00 27.7 10 Este 22 Sudeste 0 -- -- 68
2019-08-24 13:00:00 28 12 Sudeste 21 Sur 0 -- -- 64
2019-08-24 12:00:00 27.2 8 Sudeste 18 Este 0 -- -- 69
2019-08-24 11:00:00 26.3 8 Este 15 Este 0 -- -- 71
2019-08-24 10:00:00 25.7 2 Noroeste 11 Oeste 0 -- -- 63
2019-08-24 09:00:00 21 4 Sudoeste 12 Noroeste 0 -- -- 77
2019-08-24 08:00:00 18.1 5 Oeste 11 Oeste 0 -- -- 86
2019-08-24 07:00:00 17.5 5 Oeste 10 Noroeste 0 -- -- 87
2019-08-24 06:00:00 17.7 6 Noroeste 10 Sudoeste 0 -- -- 85
2019-08-24 05:00:00 17.8 4 Oeste 12 Oeste 0 -- -- 84
2019-08-24 04:00:00 17.5 4 Oeste 10 Oeste 0 -- -- 82
2019-08-24 03:00:00 18.6 3 Oeste 11 Oeste 0 -- -- 79
2019-08-24 02:00:00 19.1 4 Oeste 11 Oeste 0 -- -- 74
2019-08-24 01:00:00 19.8 4 Oeste 11 Oeste 0 -- -- 72
2019-08-24 00:00:00 20.3 5 Oeste 8 Oeste 0 -- -- 70
2019-08-23 23:00:00 21.2 3 Oeste 9 Oeste 0 -- -- 67
2019-08-23 22:00:00 22.2 4 Oeste 7 Oeste 0 -- -- 64
2019-08-23 21:00:00 23.8 0 Calma 4 Oeste 0 -- -- 62
2019-08-23 20:00:00 25.6 2 Este 10 Sur 0 -- -- 54
2019-08-23 19:00:00 26.1 5 Sudeste 14 Sudeste 0 -- -- 57
2019-08-23 18:00:00 26.9 6 Este 15 Sudeste 0 -- -- 52
2019-08-23 17:00:00 26.6 7 Este 18 Sudeste 0 -- -- 61
2019-08-23 16:00:00 26.8 8 Este 23 Este 0 -- -- 56
2019-08-23 15:00:00 27.2 9 Sudeste 23 Este 0 -- -- 55
2019-08-23 14:00:00 26.9 12 Este 26 Nordeste 0 -- -- 54
2019-08-23 13:00:00 27.5 11 Este 22 Este 0 -- -- 52
2019-08-23 12:00:00 27.1 12 Este 23 Este 0 -- -- 53
2019-08-23 11:00:00 27.7 6 Este 14 Este 0 -- -- 49
2019-08-23 10:00:00 25.6 5 Sudoeste 14 Oeste 0 -- -- 50
2019-08-23 09:00:00 21.6 4 Oeste 10 Oeste 0 -- -- 61
2019-08-23 08:00:00 18.2 5 Oeste 13 Oeste 0 -- -- 73
2019-08-23 07:00:00 17.9 4 Oeste 13 Oeste 0 -- -- 73
2019-08-23 06:00:00 18.3 4 Oeste 10 Oeste 0 -- -- 72
2019-08-23 05:00:00 18.5 5 Oeste 14 Oeste 0 -- -- 74
2019-08-23 04:00:00 17.7 4 Oeste 12 Oeste 0 -- -- 77
2019-08-23 03:00:00 18 5 Oeste 11 Oeste 0 -- -- 77
2019-08-23 02:00:00 18 5 Oeste 12 Oeste 0 -- -- 75
2019-08-23 01:00:00 19.1 6 Oeste 11 Oeste 0 -- -- 71
2019-08-23 00:00:00 20.5 4 Oeste 8 Oeste 0 -- -- 65
2019-08-22 23:00:00 21.5 5 Oeste 13 Oeste 0 -- -- 61
2019-08-22 22:00:00 22.9 2 Oeste 7 Oeste 0 -- -- 58
2019-08-22 21:00:00 25.1 3 Oeste 9 Sur 0 -- -- 56
2019-08-22 20:00:00 26.9 6 Sur 15 Sur 0 -- -- 51
2019-08-22 19:00:00 27.8 6 Sudeste 20 Sur 0 -- -- 47
2019-08-22 18:00:00 28.5 10 Sudeste 20 Sudeste 0 -- -- 40
2019-08-22 17:00:00 28.8 7 Este 21 Sur 0 -- -- 41
2019-08-22 16:00:00 28.7 13 Sur 24 Sur 0 -- -- 39
2019-08-22 15:00:00 28.4 8 Sudeste 24 Sudeste 0 -- -- 42
2019-08-22 14:00:00 28.7 12 Sur 22 Sudeste 0 -- -- 39
2019-08-22 13:00:00 28.6 12 Sudeste 23 Sur 0 -- -- 34
2019-08-22 12:00:00 29.8 9 Nordeste 27 Norte 0 -- -- 26
2019-08-22 11:00:00 27.4 15 Norte 27 Noroeste 0 -- -- 31
2019-08-22 10:00:00 26.1 9 Oeste 31 Noroeste 0 -- -- 40
2019-08-22 09:00:00 23.9 14 Noroeste 26 Noroeste 0 -- -- 49
2019-08-22 08:00:00 22.3 3 Sur 22 Oeste 0 -- -- 46
2019-08-22 07:00:00 22.8 7 Oeste 16 Oeste 0 -- -- 45
2019-08-22 06:00:00 23.7 4 Oeste 20 Noroeste 0 -- -- 45
2019-08-22 05:00:00 24.1 10 Norte 21 Nordeste 0 -- -- 41
2019-08-22 04:00:00 24.4 9 Norte 26 Norte 0 -- -- 38
2019-08-22 03:00:00 23.6 10 Noroeste 19 Norte 0 -- -- 37
2019-08-22 02:00:00 23.1 10 Noroeste 17 Noroeste 0 -- -- 52
2019-08-22 01:00:00 22.3 10 Oeste 19 Noroeste 0 -- -- 68
2019-08-22 00:00:00 21.5 8 Oeste 16 Oeste 0 -- -- 66
2019-08-21 23:00:00 21.7 5 Oeste 10 Oeste 0 -- -- 61
2019-08-21 22:00:00 22.2 4 Oeste 11 Oeste 0 -- -- 54
2019-08-21 21:00:00 23.5 3 Oeste 6 Oeste 0 -- -- 46
2019-08-21 20:00:00 25.2 3 Sudoeste 10 Sudoeste 0 -- -- 39
2019-08-21 19:00:00 25.7 3 Sur 13 Sudeste 0 -- -- 43
2019-08-21 18:00:00 25.7 4 Sudeste 15 Sudeste 0 -- -- 43
2019-08-21 17:00:00 25.8 8 Sudeste 20 Sudeste 0 -- -- 46
2019-08-21 16:00:00 26.5 10 Sudeste 19 Sudeste 0 -- -- 47
2019-08-21 15:00:00 26.6 9 Este 19 Este 0 -- -- 43
2019-08-21 14:00:00 26.9 8 Sudeste 18 Sudeste 0 -- -- 39
2019-08-21 13:00:00 27 9 Sudeste 22 Este 0 -- -- 38
2019-08-21 12:00:00 27.1 10 Sudeste 25 Sudeste 0 -- -- 38
2019-08-21 11:00:00 27 7 Sudeste 16 Nordeste 0 -- -- 40
2019-08-21 10:00:00 24.1 2 Sudoeste 14 Oeste 0 -- -- 44
2019-08-21 09:00:00 20.3 7 Oeste 15 Noroeste 0 -- -- 60
2019-08-21 08:00:00 17 5 Oeste 16 Oeste 0 -- -- 70
2019-08-21 07:00:00 16.9 6 Oeste 14 Noroeste 0 -- -- 69
2019-08-21 06:00:00 18.3 6 Oeste 24 Noroeste 0 -- -- 64
2019-08-21 05:00:00 20.8 16 Noroeste 39 Noroeste 0 -- -- 57
2019-08-21 04:00:00 21.3 16 Norte 33 Norte 0 -- -- 56
2019-08-21 03:00:00 21.1 14 Norte 37 Norte 0 -- -- 56
2019-08-21 02:00:00 21.5 13 Noroeste 28 Nordeste 3.4 -- -- 52
2019-08-21 01:00:00 22.5 12 Nordeste 36 Nordeste 0 -- -- 46
2019-08-21 00:00:00 22.9 14 Norte 39 Norte 0 -- -- 44
2019-08-20 23:00:00 23.5 18 Norte 38 Norte 0 -- -- 43
2019-08-20 22:00:00 23.6 16 Norte 46 Norte 0 -- -- 43
2019-08-20 21:00:00 24.2 21 Norte 43 Norte 0 -- -- 42
2019-08-20 20:00:00 24.4 16 Norte 47 Norte 0 -- -- 45
2019-08-20 19:00:00 24.3 19 Norte 50 Norte 0 -- -- 47
2019-08-20 18:00:00 24.7 19 Norte 44 Norte 0 -- -- 47
2019-08-20 17:00:00 26.9 11 Nordeste 27 Nordeste 0 -- -- 44
2019-08-20 16:00:00 27.1 13 Norte 38 Nordeste 0 -- -- 42
2019-08-20 15:00:00 26.8 17 Norte 38 Norte 0 -- -- 43
2019-08-20 14:00:00 28.1 12 Norte 31 Nordeste 0 -- -- 45
2019-08-20 13:00:00 28.3 12 Nordeste 35 Nordeste 0 -- -- 47
2019-08-20 12:00:00 28.4 11 Nordeste 31 Nordeste 0 -- -- 46
2019-08-20 11:00:00 27 14 Nordeste 30 Este 0 -- -- 54
2019-08-20 10:00:00 25.2 10 Nordeste 26 Nordeste 0 -- -- 57
2019-08-20 09:00:00 20.9 2 Noroeste 10 Sudoeste 0 -- -- 69
2019-08-20 08:00:00 19 4 Oeste 9 Sudoeste 0 -- -- 74
2019-08-20 07:00:00 18.2 3 Oeste 9 Oeste 0 -- -- 76
2019-08-20 06:00:00 19 4 Oeste 9 Sudoeste 0 -- -- 74
2019-08-20 05:00:00 19.8 5 Oeste 11 Sudoeste 0 -- -- 73
2019-08-20 04:00:00 21.6 2 Oeste 9 Noroeste 0 -- -- 64
2019-08-20 03:00:00 22.9 4 Noroeste 14 Norte 0 -- -- 59
2019-08-20 02:00:00 23.2 9 Noroeste 18 Noroeste 0 -- -- 59
2019-08-20 01:00:00 23.5 7 Noroeste 15 Norte 0 -- -- 58
2019-08-20 00:00:00 23.8 9 Noroeste 18 Norte 0 -- -- 61
2019-08-19 23:00:00 23.9 6 Nordeste 13 Nordeste 0 -- -- 59
2019-08-19 22:00:00 24 5 Este 15 Este 0 -- -- 61
2019-08-19 21:00:00 24.4 6 Nordeste 18 Este 0 -- -- 63
2019-08-19 20:00:00 24.6 9 Este 26 Este 0 -- -- 63
2019-08-19 19:00:00 25.5 11 Este 26 Este 0 -- -- 61
2019-08-19 18:00:00 25.5 11 Este 23 Este 0 -- -- 63
2019-08-19 17:00:00 25.8 11 Este 27 Este 0 -- -- 62
2019-08-19 16:00:00 27.5 13 Este 32 Este 0 -- -- 55
2019-08-19 15:00:00 26.6 14 Este 30 Este 0 -- -- 62
2019-08-19 14:00:00 26.4 14 Este 31 Este 0 -- -- 63
2019-08-19 13:00:00 25.8 12 Este 26 Este 0 -- -- 64
2019-08-19 12:00:00 26.8 12 Este 24 Este 0 -- -- 62
2019-08-19 11:00:00 25.8 9 Este 20 Este 0 -- -- 68
2019-08-19 10:00:00 26.2 8 Este 15 Nordeste 0 -- -- 71
2019-08-19 09:00:00 24 6 Este 14 Este 0 -- -- 84
2019-08-19 08:00:00 23.4 6 Este 15 Nordeste 0 -- -- 89
2019-08-19 07:00:00 22.8 3 Sudeste 5 Sudeste 0 -- -- 95
2019-08-19 06:00:00 22.7 0 Calma 4 Sur 0 -- -- 93
2019-08-19 05:00:00 23.4 2 Sur 5 Sur 0 -- -- 91
2019-08-19 04:00:00 23.7 4 Sudeste 8 Noroeste 0 -- -- 91
2019-08-19 03:00:00 24 3 Sudoeste 15 Noroeste 0 -- -- 91
2019-08-19 02:00:00 23.4 5 Oeste 9 Noroeste 0 -- -- 93
2019-08-19 01:00:00 23.2 3 Oeste 10 Sudoeste 0.4 -- -- 93
2019-08-19 00:00:00 24 3 Oeste 6 Oeste 0 -- -- 91
2019-08-18 23:00:00 25 2 Sudeste 5 Este 0 -- -- 90
2019-08-18 22:00:00 25.7 2 Sudeste 6 Sur 0 -- -- 89
2019-08-18 21:00:00 26 3 Norte 16 Sur 0 -- -- 88
2019-08-18 20:00:00 26.7 8 Sur 21 Sur 0 -- -- 85
2019-08-18 19:00:00 27.4 7 Sudeste 19 Sudoeste 0 -- -- 82
2019-08-18 18:00:00 28.2 7 Oeste 22 Sudeste 0 -- -- 75
2019-08-18 17:00:00 28.4 8 Sudoeste 32 Sudoeste 0 -- -- 75
2019-08-18 16:00:00 28.8 12 Sur 31 Sudoeste 0 -- -- 73
2019-08-18 15:00:00 28.8 13 Sur 35 Sudeste 0 -- -- 75
2019-08-18 14:00:00 29.3 13 Sur 33 Sur 0 -- -- 72
2019-08-18 13:00:00 28.8 14 Sur 31 Sur 0 -- -- 73
2019-08-18 12:00:00 28.4 10 Sur 25 Sudoeste 0 -- -- 72
2019-08-18 11:00:00 27.6 10 Sur 24 Sudeste 0 -- -- 77
2019-08-18 10:00:00 26.8 8 Sur 19 Sudoeste 0 -- -- 84
2019-08-18 09:00:00 26.2 5 Sudoeste 13 Sudoeste 0 -- -- 85
2019-08-18 08:00:00 24.6 3 Sudoeste 10 Sudoeste 0 -- -- 91
2019-08-18 07:00:00 24 5 Sudoeste 16 Sudoeste 0 -- -- 90
2019-08-18 06:00:00 24.2 6 Sudoeste 19 Sudoeste 0 -- -- 91
2019-08-18 05:00:00 24.1 7 Sudoeste 16 Sudoeste 0 -- -- 92
2019-08-18 04:00:00 24 7 Sudoeste 17 Sur 0 -- -- 92
2019-08-18 03:00:00 24.3 4 Noroeste 13 Sur 0 -- -- 87
2019-08-18 02:00:00 24 5 Sur 16 Sudoeste 0 -- -- 86
2019-08-18 01:00:00 24.6 7 Sudoeste 17 Sudoeste 0 -- -- 84
2019-08-18 00:00:00 24.9 12 Sur 25 Sur 0 -- -- 83
2019-08-17 23:00:00 25.1 9 Sudoeste 20 Sudoeste 0 -- -- 84
2019-08-17 22:00:00 25.3 8 Sudoeste 23 Sur 0 -- -- 83
2019-08-17 21:00:00 25.8 10 Sudoeste 23 Sudoeste 0 -- -- 82
2019-08-17 20:00:00 26.9 7 Sur 24 Sudoeste 0 -- -- 79
2019-08-17 19:00:00 27.6 11 Sudoeste 23 Sur 0 -- -- 76
2019-08-17 18:00:00 27.9 10 Sur 37 Sur 0 -- -- 76
2019-08-17 17:00:00 28.2 21 Sur 41 Sur 0 -- -- 74
2019-08-17 16:00:00 28.5 23 Sur 43 Sur 0 -- -- 72
2019-08-17 15:00:00 29.5 15 Sur 32 Sur 0 -- -- 70
2019-08-17 14:00:00 29 14 Sur 35 Sur 0 -- -- 73
2019-08-17 13:00:00 28.6 13 Sur 29 Sur 0 -- -- 73
2019-08-17 12:00:00 27 10 Este 18 Nordeste 0 -- -- 74
2019-08-17 11:00:00 26.5 8 Este 17 Este 0 -- -- 72
2019-08-17 10:00:00 25.5 8 Este 14 Este 0 -- -- 74
2019-08-17 09:00:00 23.5 4 Oeste 10 Sudoeste 0 -- -- 83
2019-08-17 08:00:00 20.6 4 Oeste 12 Oeste 0 -- -- 93
2019-08-17 07:00:00 20 5 Oeste 10 Oeste 0 -- -- 94
2019-08-17 06:00:00 20.3 3 Oeste 11 Oeste 0 -- -- 95
2019-08-17 05:00:00 20.7 5 Sudoeste 13 Oeste 0 -- -- 94
2019-08-17 04:00:00 20.8 4 Sudoeste 10 Oeste 0 -- -- 96
2019-08-17 03:00:00 21.1 5 Sudoeste 12 Sudoeste 3 -- -- 96
2019-08-17 02:00:00 22.1 4 Sudoeste 9 Sudoeste 4 -- -- 94
2019-08-17 01:00:00 22.6 3 Sudoeste 8 Oeste 0 -- -- 89
2019-08-17 00:00:00 23.2 2 Oeste 6 Oeste 0 -- -- 86
2019-08-16 23:00:00 24.2 2 Sudoeste 6 Oeste 0 -- -- 84
2019-08-16 22:00:00 25.3 4 Sudoeste 15 Sudoeste 0 -- -- 82
2019-08-16 21:00:00 25.7 9 Sudoeste 19 Sur 0 -- -- 81
2019-08-16 20:00:00 26.2 9 Sur 24 Sur 0 -- -- 79
2019-08-16 19:00:00 27 10 Sur 31 Sur 0 -- -- 76
2019-08-16 18:00:00 27.3 14 Sur 32 Sur 0 -- -- 72
2019-08-16 17:00:00 27.3 14 Sur 33 Sur 0 -- -- 67
2019-08-16 16:00:00 28 8 Sudoeste 31 Sur 0 -- -- 62
2019-08-16 15:00:00 27.9 10 Sudoeste 37 Sudoeste 0 -- -- 64
2019-08-16 14:00:00 27.7 8 Sur 35 Sudoeste 0 -- -- 61
2019-08-16 13:00:00 26.9 18 Sur 35 Sur 0 -- -- 63
2019-08-16 12:00:00 26.5 15 Sur 33 Sur 0 -- -- 60
2019-08-16 11:00:00 26.3 9 Sudeste 18 Sudeste 0 -- -- 55
2019-08-16 10:00:00 25.6 2 Nordeste 12 Oeste 0 -- -- 58
2019-08-16 09:00:00 22.6 6 Oeste 12 Noroeste 0 -- -- 69
2019-08-16 08:00:00 20.7 3 Oeste 7 Oeste 0 -- -- 79
2019-08-16 07:00:00 20.3 2 Oeste 7 Oeste 0 -- -- 80
2019-08-16 06:00:00 20.1 4 Oeste 8 Oeste 0 -- -- 80
2019-08-16 05:00:00 20.4 2 Oeste 9 Oeste 0 -- -- 78
2019-08-16 04:00:00 21.6 5 Oeste 11 Oeste 0 -- -- 71
2019-08-16 03:00:00 21.9 5 Oeste 13 Noroeste 0 -- -- 71
2019-08-16 02:00:00 22.9 7 Oeste 23 Noroeste 0 -- -- 64
2019-08-16 01:00:00 22.8 7 Oeste 16 Noroeste 0 -- -- 73
2019-08-16 00:00:00 22.9 7 Oeste 16 Noroeste 0 -- -- 76
2019-08-15 23:00:00 23.1 9 Oeste 15 Oeste 0 -- -- 80
2019-08-15 22:00:00 23.2 5 Oeste 10 Oeste 0 -- -- 78
2019-08-15 21:00:00 23.5 3 Sudoeste 6 Sudoeste 0 -- -- 77
2019-08-15 20:00:00 23.7 3 Norte 9 Sudeste 0 -- -- 75
2019-08-15 19:00:00 24.2 4 Este 13 Este 0 -- -- 72
2019-08-15 18:00:00 24.1 6 Este 15 Este 0 -- -- 72
2019-08-15 17:00:00 24.8 10 Este 24 Este 0 -- -- 70
2019-08-15 16:00:00 24.4 10 Este 26 Este 0 -- -- 71
2019-08-15 15:00:00 25.4 14 Este 27 Este 0 -- -- 69
2019-08-15 14:00:00 26 12 Este 22 Este 0 -- -- 65
2019-08-15 13:00:00 26.8 10 Este 21 Sudeste 0 -- -- 62
2019-08-15 12:00:00 27.2 9 Sudeste 17 Sur 0 -- -- 58
2019-08-15 11:00:00 25.4 5 Sudeste 10 Sudeste 0 -- -- 61
2019-08-15 10:00:00 24.9 6 Este 12 Este 0 -- -- 67
2019-08-15 09:00:00 21.7 4 Oeste 12 Noroeste 0 -- -- 77
2019-08-15 08:00:00 18.6 5 Oeste 13 Oeste 0 -- -- 87
2019-08-15 07:00:00 17.6 6 Oeste 11 Oeste 0 -- -- 90
2019-08-15 06:00:00 17.8 4 Oeste 13 Oeste 0 -- -- 90
2019-08-15 05:00:00 17.8 5 Oeste 12 Oeste 0 -- -- 89
2019-08-15 04:00:00 18.4 4 Oeste 12 Sudoeste 0 -- -- 87
2019-08-15 03:00:00 19.3 5 Oeste 12 Oeste 0 -- -- 85
2019-08-15 02:00:00 19.5 4 Oeste 11 Sudoeste 0 -- -- 85
2019-08-15 01:00:00 20.1 4 Oeste 10 Oeste 0 -- -- 83
2019-08-15 00:00:00 21 4 Oeste 9 Oeste 0 -- -- 81
2019-08-14 23:00:00 22 2 Oeste 7 Sudoeste 0 -- -- 77
2019-08-14 22:00:00 22.9 3 Sudoeste 7 Oeste 0 -- -- 73
2019-08-14 21:00:00 24 5 Sudoeste 19 Sudoeste 0 -- -- 70
2019-08-14 20:00:00 24.6 8 Sur 22 Sudoeste 0 -- -- 68
2019-08-14 19:00:00 25.4 9 Sur 26 Sudoeste 0 -- -- 64
2019-08-14 18:00:00 25.9 11 Sur 27 Sudoeste 0 -- -- 60
2019-08-14 17:00:00 26.5 10 Sur 26 Sur 0 -- -- 57
2019-08-14 16:00:00 26.1 11 Sudeste 23 Sudeste 0 -- -- 55
2019-08-14 15:00:00 26.1 9 Este 25 Sudeste 0 -- -- 53
2019-08-14 14:00:00 25.6 11 Sudeste 22 Este 0 -- -- 52
2019-08-14 13:00:00 25.8 11 Este 20 Este 0 -- -- 51
2019-08-14 12:00:00 25.5 10 Este 18 Este 0 -- -- 50
2019-08-14 11:00:00 26.2 4 Nordeste 13 Sudoeste 0 -- -- 50
2019-08-14 10:00:00 24.7 2 Noroeste 14 Oeste 0 -- -- 50
2019-08-14 09:00:00 21.7 6 Oeste 14 Oeste 0 -- -- 55
2019-08-14 08:00:00 18.9 4 Sudoeste 11 Sudoeste 0 -- -- 64
2019-08-14 07:00:00 17.8 4 Oeste 9 Oeste 0 -- -- 67
2019-08-14 06:00:00 18.5 6 Oeste 15 Oeste 0 -- -- 64
2019-08-14 05:00:00 19.2 5 Oeste 13 Oeste 0 -- -- 61
2019-08-14 04:00:00 19.8 6 Oeste 12 Oeste 0 -- -- 59
2019-08-14 03:00:00 19.9 4 Oeste 14 Oeste 0 -- -- 60
2019-08-14 02:00:00 20.1 4 Oeste 13 Noroeste 0 -- -- 60
2019-08-14 01:00:00 20.7 4 Oeste 18 Norte 0 -- -- 55
2019-08-14 00:00:00 21.9 8 Noroeste 23 Nordeste 0 -- -- 50
2019-08-13 23:00:00 22.5 9 Norte 19 Nordeste 0 -- -- 52
2019-08-13 22:00:00 21.6 2 Sudoeste 5 Oeste 0 -- -- 70
2019-08-13 21:00:00 22.8 0 Calma 11 Sur 0 -- -- 65
2019-08-13 20:00:00 23.7 6 Sudeste 13 Sudeste 0 -- -- 61
2019-08-13 19:00:00 24.4 7 Sur 16 Sudeste 0 -- -- 56
2019-08-13 18:00:00 25.3 8 Sur 18 Sudeste 0 -- -- 55
2019-08-13 17:00:00 25.1 8 Sudeste 22 Este 0 -- -- 52
2019-08-13 16:00:00 25.3 10 Sudeste 22 Sudeste 0 -- -- 51
2019-08-13 15:00:00 25.2 8 Sudeste 22 Nordeste 0 -- -- 52
2019-08-13 14:00:00 24.9 11 Sudeste 23 Sudeste 0 -- -- 53
2019-08-13 13:00:00 26.5 8 Sudeste 20 Este 0 -- -- 49
2019-08-13 12:00:00 24.4 6 Norte 20 Nordeste 0 -- -- 49
2019-08-13 11:00:00 22.2 11 Norte 23 Norte 0 -- -- 55
2019-08-13 10:00:00 21.5 10 Noroeste 31 Noroeste 0 -- -- 57
2019-08-13 09:00:00 20.1 13 Noroeste 39 Norte 0 -- -- 62
2019-08-13 08:00:00 19.5 19 Norte 44 Norte 0 -- -- 62
2019-08-13 07:00:00 19.4 18 Norte 42 Noroeste 0 -- -- 62
2019-08-13 06:00:00 19.9 17 Norte 39 Norte 0 -- -- 59
2019-08-13 05:00:00 20.4 17 Norte 42 Norte 0 -- -- 56
2019-08-13 04:00:00 20.8 16 Norte 42 Norte 0 -- -- 54
2019-08-13 03:00:00 21.3 18 Norte 48 Norte 0 -- -- 54
2019-08-13 02:00:00 21.5 21 Norte 54 Norte 0 -- -- 53
2019-08-13 01:00:00 22 21 Norte 51 Nordeste 0 -- -- 50
2019-08-13 00:00:00 22.2 17 Norte 44 Noroeste 0 -- -- 49
2019-08-12 23:00:00 22.1 22 Norte 45 Norte 0 -- -- 49
2019-08-12 22:00:00 22.8 18 Norte 38 Norte 0 -- -- 45
2019-08-12 21:00:00 23.7 13 Norte 37 Norte 0 -- -- 41
2019-08-12 20:00:00 25 18 Norte 35 Norte 0 -- -- 41
2019-08-12 19:00:00 26.4 18 Norte 35 Norte 0 -- -- 43
2019-08-12 18:00:00 27.8 17 Norte 32 Noroeste 0 -- -- 41
2019-08-12 17:00:00 28.5 11 Norte 27 Nordeste 0 -- -- 41
2019-08-12 16:00:00 28.8 10 Este 21 Este 0 -- -- 45
2019-08-12 15:00:00 27.6 8 Norte 23 Noroeste 0.2 -- -- 42
2019-08-12 14:00:00 27.7 13 Norte 27 Nordeste 0 -- -- 42
2019-08-12 13:00:00 26.7 14 Norte 31 Norte 0 -- -- 45
2019-08-12 12:00:00 25.6 15 Norte 32 Norte 0 -- -- 49
2019-08-12 11:00:00 23.8 14 Norte 40 Nordeste 0 -- -- 58
2019-08-12 10:00:00 23.8 9 Norte 23 Noroeste 0 -- -- 58
2019-08-12 09:00:00 22.6 5 Nordeste 22 Norte 0 -- -- 61
2019-08-12 08:00:00 21.1 5 Nordeste 12 Norte 0 -- -- 69
2019-08-12 07:00:00 20.6 7 Noroeste 30 Oeste 0 -- -- 76
2019-08-12 06:00:00 21.7 7 Nordeste 23 Noroeste 0.6 -- -- 71
2019-08-12 05:00:00 22.2 9 Norte 26 Norte 0 -- -- 60
2019-08-12 04:00:00 19 4 Oeste 14 Oeste 0 -- -- 89
2019-08-12 03:00:00 18.6 4 Sudoeste 15 Oeste 1 -- -- 93
2019-08-12 02:00:00 19.8 3 Sur 16 Noroeste 3.2 -- -- 94
2019-08-12 01:00:00 23 3 Sur 10 Sudoeste 0 -- -- 68
2019-08-12 00:00:00 23.5 4 Sudoeste 15 Oeste 0 -- -- 71
2019-08-11 23:00:00 24 0 Calma 8 Oeste 0 -- -- 76
2019-08-11 22:00:00 24.9 2 Sudeste 16 Este 0 -- -- 74
2019-08-11 21:00:00 25.5 9 Este 23 Este 0 -- -- 68
2019-08-11 20:00:00 26 12 Este 28 Este 0 -- -- 72
2019-08-11 19:00:00 28.4 12 Nordeste 26 Nordeste 0 -- -- 55
2019-08-11 18:00:00 28.6 10 Sudeste 18 Nordeste 0 -- -- 65
2019-08-11 17:00:00 28.8 7 Sudeste 23 Este 0 -- -- 64
2019-08-11 16:00:00 28.7 10 Sudeste 24 Sur 0 -- -- 58
2019-08-11 15:00:00 29 13 Sur 27 Sur 0 -- -- 60
2019-08-11 14:00:00 28.7 15 Sur 27 Sudeste 0 -- -- 57
2019-08-11 13:00:00 28.7 14 Sudeste 24 Sudeste 0 -- -- 58
2019-08-11 12:00:00 29.2 9 Sur 18 Este 0 -- -- 48
2019-08-11 11:00:00 29.1 7 Este 13 Este 0 -- -- 45
2019-08-11 10:00:00 27.8 5 Este 14 Oeste 0 -- -- 50
2019-08-11 09:00:00 24.1 8 Oeste 15 Oeste 0 -- -- 69
2019-08-11 08:00:00 21.3 5 Oeste 12 Oeste 0 -- -- 79
2019-08-11 07:00:00 20.6 4 Oeste 10 Oeste 0 -- -- 80
2019-08-11 06:00:00 21.1 3 Oeste 9 Sudoeste 0 -- -- 76
2019-08-11 05:00:00 21.6 4 Sudoeste 9 Oeste 0 -- -- 74
2019-08-11 04:00:00 22.2 4 Sudoeste 15 Sudoeste 0 -- -- 72
2019-08-11 03:00:00 22.5 5 Oeste 15 Oeste 0 -- -- 72
2019-08-11 02:00:00 22.5 3 Oeste 12 Oeste 0 -- -- 77
2019-08-11 01:00:00 22.7 3 Sudoeste 9 Sudoeste 0 -- -- 81
2019-08-11 00:00:00 23.6 3 Oeste 6 Oeste 0 -- -- 81
2019-08-10 23:00:00 24.8 0 Calma 6 Sudeste 0 -- -- 78
2019-08-10 22:00:00 25.8 3 Sudeste 9 Sudeste 0 -- -- 76
2019-08-10 21:00:00 26.6 4 Sudeste 12 Este 0 -- -- 73
2019-08-10 20:00:00 27.4 5 Este 16 Este 0 -- -- 69
2019-08-10 19:00:00 27.9 10 Este 23 Este 0 -- -- 64
2019-08-10 18:00:00 28.3 11 Este 27 Este 0 -- -- 62
2019-08-10 17:00:00 29 11 Este 26 Nordeste 0 -- -- 57
2019-08-10 16:00:00 29.6 12 Este 29 Este 0 -- -- 55
2019-08-10 15:00:00 29.8 12 Este 28 Este 0 -- -- 55
2019-08-10 14:00:00 30.1 13 Este 28 Este 0 -- -- 53
2019-08-10 13:00:00 31 12 Este 25 Este 0 -- -- 50
2019-08-10 12:00:00 31.6 13 Este 24 Nordeste 0 -- -- 43
2019-08-10 11:00:00 30.6 9 Nordeste 23 Nordeste 0 -- -- 49
2019-08-10 10:00:00 29.6 7 Nordeste 21 Nordeste 0 -- -- 56
2019-08-10 09:00:00 26.9 6 Oeste 11 Oeste 0 -- -- 76
2019-08-10 08:00:00 24.9 6 Oeste 11 Oeste 0 -- -- 87
2019-08-10 07:00:00 23.6 2 Oeste 6 Oeste 0 -- -- 94
2019-08-10 06:00:00 24 4 Oeste 7 Oeste 0 -- -- 93
2019-08-10 05:00:00 24.8 3 Norte 12 Este 0 -- -- 92
2019-08-10 04:00:00 25.3 7 Este 21 Este 0 -- -- 89
2019-08-10 03:00:00 25.6 6 Nordeste 18 Nordeste 0 -- -- 90
2019-08-10 02:00:00 24.5 3 Sur 9 Sudeste 2.8 -- -- 94
2019-08-10 01:00:00 25.5 0 Calma 13 Este 0 -- -- 88
2019-08-10 00:00:00 25.8 5 Sudeste 13 Este 0 -- -- 87
2019-08-09 23:00:00 26 4 Este 9 Este 0 -- -- 86
2019-08-09 22:00:00 27.1 2 Noroeste 15 Sur 0 -- -- 76
2019-08-09 21:00:00 28.1 5 Sudeste 15 Sur 0 -- -- 75
2019-08-09 20:00:00 28.4 8 Sudoeste 22 Sudoeste 0 -- -- 80
2019-08-09 19:00:00 29.3 7 Sur 19 Sur 0 -- -- 78
2019-08-09 18:00:00 29.8 9 Sur 30 Noroeste 0 -- -- 77
2019-08-09 17:00:00 29.3 7 Oeste 30 Sur 0 -- -- 79
2019-08-09 16:00:00 29.9 17 Sur 51 Sudoeste 0 -- -- 75
2019-08-09 15:00:00 30 27 Sur 47 Sur 0 -- -- 76
2019-08-09 14:00:00 30.2 11 Sur 31 Sudeste 0 -- -- 75
2019-08-09 13:00:00 29.8 11 Sudeste 30 Sur 0 -- -- 78
2019-08-09 12:00:00 29.8 13 Sur 31 Sur 0 -- -- 76
2019-08-09 11:00:00 29.3 16 Sur 28 Sur 0 -- -- 75
2019-08-09 10:00:00 28.8 15 Sur 26 Sur 0 -- -- 76
2019-08-09 09:00:00 27.5 15 Sur 31 Sur 0 -- -- 82
2019-08-09 08:00:00 26.3 13 Sur 28 Sur 0 -- -- 88
2019-08-09 07:00:00 25.5 6 Oeste 14 Oeste 0 -- -- 91
2019-08-09 06:00:00 25.2 6 Sudoeste 17 Sudoeste 0 -- -- 93
2019-08-09 05:00:00 25.5 4 Oeste 19 Sur 0 -- -- 90
2019-08-09 04:00:00 26 12 Sur 22 Sudoeste 0 -- -- 92
2019-08-09 03:00:00 25.3 6 Oeste 19 Oeste 0 -- -- 92
2019-08-09 02:00:00 25 5 Oeste 13 Sur 0 -- -- 89
2019-08-09 01:00:00 26.1 4 Sudoeste 19 Sudoeste 0 -- -- 89
2019-08-09 00:00:00 26.3 4 Sudoeste 18 Sudoeste 0 -- -- 88
2019-08-08 23:00:00 26.5 8 Sur 17 Sur 0 -- -- 88
2019-08-08 22:00:00 26.6 4 Sudoeste 19 Sudoeste 0 -- -- 86
2019-08-08 21:00:00 26.9 9 Sur 28 Sudoeste 0 -- -- 84
2019-08-08 20:00:00 27.6 10 Sudoeste 25 Sudoeste 0 -- -- 79
2019-08-08 19:00:00 28.7 11 Sudoeste 30 Sur 0 -- -- 75
2019-08-08 18:00:00 29.4 8 Oeste 29 Sudoeste 0 -- -- 74
2019-08-08 17:00:00 29.6 9 Sudoeste 34 Sur 0 -- -- 75
2019-08-08 16:00:00 29.9 9 Sudoeste 34 Sur 0 -- -- 74
2019-08-08 15:00:00 29.6 11 Sur 27 Sur 0 -- -- 75
2019-08-08 14:00:00 28.4 11 Sur 31 Sur 0 -- -- 79
2019-08-08 13:00:00 29 15 Sudeste 31 Sur 0 -- -- 77
2019-08-08 12:00:00 29.1 12 Sur 21 Sur 0 -- -- 74
2019-08-08 11:00:00 29.1 7 Sudeste 15 Sudeste 0 -- -- 72
2019-08-08 10:00:00 28.3 5 Sudeste 15 Este 0 -- -- 75
2019-08-08 09:00:00 25.5 0 Calma 8 Noroeste 0 -- -- 79
2019-08-08 08:00:00 22.8 4 Oeste 9 Oeste 0 -- -- 86
2019-08-08 07:00:00 22.1 4 Oeste 7 Oeste 0 -- -- 88
2019-08-08 06:00:00 22.8 2 Oeste 9 Oeste 0 -- -- 85
2019-08-08 05:00:00 23 3 Oeste 10 Oeste 0 -- -- 85
2019-08-08 04:00:00 23.2 4 Oeste 14 Oeste 0 -- -- 84
2019-08-08 03:00:00 23.2 5 Oeste 19 Oeste 0 -- -- 85
2019-08-08 02:00:00 23.1 5 Oeste 17 Oeste 0 -- -- 84
2019-08-08 01:00:00 23.3 5 Oeste 13 Oeste 0 -- -- 83
2019-08-08 00:00:00 23.8 4 Oeste 9 Oeste 0 -- -- 82
2019-08-07 23:00:00 25 4 Oeste 14 Oeste 0 -- -- 78
2019-08-07 22:00:00 25.4 2 Oeste 5 Oeste 0 -- -- 82
2019-08-07 21:00:00 25.9 0 Calma 10 Este 0 -- -- 80
2019-08-07 20:00:00 26.2 2 Sudeste 14 Sudeste 0 -- -- 77
2019-08-07 19:00:00 26.5 3 Este 18 Sudeste 0 -- -- 78
2019-08-07 18:00:00 26.7 7 Este 23 Este 0 -- -- 76
2019-08-07 17:00:00 27.8 13 Este 28 Este 0 -- -- 70
2019-08-07 16:00:00 28.6 13 Este 25 Este 0 -- -- 63
2019-08-07 15:00:00 27.9 9 Este 21 Este 0 -- -- 67
2019-08-07 14:00:00 27.7 12 Este 22 Nordeste 0 -- -- 75
2019-08-07 13:00:00 27.7 11 Este 24 Este 0 -- -- 76
2019-08-07 12:00:00 27.6 9 Este 18 Este 0 -- -- 77
2019-08-07 11:00:00 27.3 6 Nordeste 15 Norte 0 -- -- 75
2019-08-07 10:00:00 26.2 4 Noroeste 10 Noroeste 0 -- -- 80
2019-08-07 09:00:00 23.5 4 Oeste 8 Oeste 0 -- -- 91
2019-08-07 08:00:00 22.1 2 Noroeste 6 Oeste 0 -- -- 94
2019-08-07 07:00:00 21.7 0 Calma 6 Oeste 0 -- -- 94
2019-08-07 06:00:00 21.8 2 Oeste 8 Oeste 0 -- -- 94
2019-08-07 05:00:00 22.5 3 Oeste 8 Oeste 0 -- -- 92
2019-08-07 04:00:00 23.3 4 Oeste 6 Oeste 0 -- -- 90
2019-08-07 03:00:00 24.4 0 Calma 13 Noroeste 0 -- -- 88
2019-08-07 02:00:00 24.5 6 Este 14 Nordeste 0 -- -- 88
2019-08-07 01:00:00 24.2 2 Oeste 8 Noroeste 0 -- -- 90
2019-08-07 00:00:00 24.7 4 Este 8 Noroeste 0 -- -- 89
2019-08-06 23:00:00 24.3 2 Sudeste 5 Este 0 -- -- 89
2019-08-06 22:00:00 24.9 3 Sur 6 Sur 0 -- -- 88
2019-08-06 21:00:00 26.3 4 Noroeste 12 Sur 0 -- -- 84
2019-08-06 20:00:00 26.6 6 Sur 11 Sur 0 -- -- 84
2019-08-06 19:00:00 26.2 5 Sudeste 15 Este 0 -- -- 87
2019-08-06 18:00:00 27.3 6 Sur 17 Sudeste 0 -- -- 82
2019-08-06 17:00:00 27.3 8 Sudeste 20 Sudeste 0 -- -- 81
2019-08-06 16:00:00 28.3 10 Sudeste 19 Este 0 -- -- 76
2019-08-06 15:00:00 28.4 8 Sudeste 19 Este 0 -- -- 75
2019-08-06 14:00:00 28.3 10 Este 18 Este 0 -- -- 74
2019-08-06 13:00:00 28.4 6 Sudeste 18 Sudeste 0 -- -- 74
2019-08-06 12:00:00 28 7 Este 18 Este 0 -- -- 71
2019-08-06 11:00:00 27.3 10 Este 21 Este 0 -- -- 74
2019-08-06 10:00:00 26.4 7 Este 13 Nordeste 0 -- -- 75
2019-08-06 09:00:00 22.2 3 Oeste 13 Oeste 0 -- -- 82
2019-08-06 08:00:00 19.7 4 Oeste 12 Oeste 0 -- -- 82
2019-08-06 07:00:00 19.1 5 Oeste 11 Oeste 0 -- -- 83
2019-08-06 06:00:00 19.1 5 Oeste 12 Oeste 0 -- -- 83
2019-08-06 05:00:00 19.3 7 Oeste 11 Noroeste 0 -- -- 85
2019-08-06 04:00:00 19.2 4 Sudoeste 10 Oeste 0 -- -- 84
2019-08-06 03:00:00 18.9 3 Oeste 10 Oeste 0 -- -- 89
2019-08-06 02:00:00 19.4 4 Oeste 10 Oeste 0 -- -- 88
2019-08-06 01:00:00 21.6 4 Oeste 8 Oeste 0 -- -- 77
2019-08-06 00:00:00 23.1 3 Oeste 6 Oeste 0 -- -- 73
2019-08-05 23:00:00 25 3 Este 6 Sudeste 0 -- -- 83
2019-08-05 22:00:00 25.9 3 Norte 10 Sudoeste 0 -- -- 78
2019-08-05 21:00:00 26.4 5 Oeste 23 Sur 0 -- -- 77
2019-08-05 20:00:00 27.4 9 Sur 19 Sur 0 -- -- 74
2019-08-05 19:00:00 28.6 5 Sur 27 Sudoeste 0 -- -- 64
2019-08-05 18:00:00 29 10 Sur 25 Sudoeste 0 -- -- 73
2019-08-05 17:00:00 29.2 10 Sur 26 Sudoeste 0 -- -- 72
2019-08-05 16:00:00 29.5 12 Sudoeste 33 Sur -- -- -- 68
2019-08-05 15:00:00 29.5 14 Sur 30 Sur 0 -- -- 69
2019-08-05 14:00:00 29 9 Sudeste 19 Sudeste 0 -- -- 71
2019-08-05 13:00:00 29.4 9 Este 16 Nordeste 0 -- -- 68
2019-08-05 12:00:00 29.5 6 Sudeste 14 Este 0 -- -- 62
2019-08-05 11:00:00 28.6 9 Este 15 Este 0 -- -- 61
2019-08-05 10:00:00 27.8 6 Este 13 Este 0 -- -- 61
2019-08-05 09:00:00 24.6 0 Calma 5 Sudoeste 0 -- -- 78
2019-08-05 08:00:00 21.5 4 Noroeste 16 Oeste 0 -- -- 91
2019-08-05 07:00:00 20.9 4 Sudoeste 10 Sudoeste 0 -- -- 93
2019-08-05 06:00:00 21.3 4 Oeste 9 Oeste 0 -- -- 94
2019-08-05 05:00:00 21.8 4 Oeste 9 Oeste 0 -- -- 95
2019-08-05 04:00:00 21.5 3 Oeste 6 Oeste 0 -- -- 93
2019-08-05 03:00:00 21.9 3 Oeste 10 Sudoeste 0 -- -- 90
2019-08-05 02:00:00 22.1 4 Sudoeste 9 Sudoeste 0 -- -- 93
2019-08-05 01:00:00 21.6 5 Oeste 8 Oeste 3.4 -- -- 86
2019-08-05 00:00:00 23.3 2 Oeste 7 Oeste 0 -- -- 79
2019-08-04 23:00:00 24.9 3 Oeste 9 Sudoeste 0 -- -- 78
2019-08-04 22:00:00 26 5 Sudoeste 15 Sur 0 -- -- 76
2019-08-04 21:00:00 26.6 8 Sur 19 Sudoeste 0 -- -- 76
2019-08-04 20:00:00 27.2 10 Sur 23 Sur 0 -- -- 74
2019-08-04 19:00:00 27.3 12 Sur 24 Sur 0 -- -- 76
2019-08-04 18:00:00 28.4 8 Sudeste 21 Sudoeste 0 -- -- 69
2019-08-04 17:00:00 28.6 8 Sudeste 20 Sur 0 -- -- 58
2019-08-04 16:00:00 28.7 9 Este 18 Este 0 -- -- 56
2019-08-04 15:00:00 28.4 10 Este 19 Sudeste 0 -- -- 51
2019-08-04 14:00:00 28.9 8 Este 17 Sudeste 0 -- -- 53
2019-08-04 13:00:00 29.2 7 Sudeste 15 Sur 0 -- -- 48
2019-08-04 12:00:00 29.4 8 Sudeste 14 Sudeste 0 -- -- 49
2019-08-04 11:00:00 28.6 6 Sudeste 13 Sudeste 0 -- -- 55
2019-08-04 10:00:00 28 0 Calma 10 Noroeste 0 -- -- 55
2019-08-04 09:00:00 24.4 3 Oeste 10 Oeste 0 -- -- 73
2019-08-04 08:00:00 21.3 4 Oeste 12 Oeste 0 -- -- 81
2019-08-04 07:00:00 20.1 5 Oeste 14 Sudoeste 0 -- -- 84
2019-08-04 06:00:00 19.6 3 Sudoeste 9 Sudoeste 0 -- -- 86
2019-08-04 05:00:00 19.6 4 Oeste 10 Oeste 0 -- -- 88
2019-08-04 04:00:00 19.9 4 Oeste 9 Sudoeste 0 -- -- 92
2019-08-04 03:00:00 20.6 3 Oeste 7 Oeste 0 -- -- 94
2019-08-04 02:00:00 21.3 4 Oeste 9 Sudoeste 0 -- -- 93
2019-08-04 01:00:00 23.4 3 Oeste 8 Sudoeste 0 -- -- 85
2019-08-04 00:00:00 24.3 0 Calma 8 Oeste 0 -- -- 81
2019-08-03 23:00:00 25.4 4 Sudoeste 12 Sur 0 -- -- 79
2019-08-03 22:00:00 25.6 3 Noroeste 12 Sur 0 -- -- 77
2019-08-03 21:00:00 26.1 0 Calma 15 Sur 0 -- -- 76
2019-08-03 20:00:00 26.7 8 Sudoeste 26 Sur 0 -- -- 74
2019-08-03 19:00:00 27.9 10 Sudoeste 23 Sur 0 -- -- 67
2019-08-03 18:00:00 28.2 13 Sur 28 Sudeste 0 -- -- 65
2019-08-03 17:00:00 29.2 7 Sur 28 Sudeste 0 -- -- 56
2019-08-03 16:00:00 30 10 Sur 25 Sur 0 -- -- 50
2019-08-03 15:00:00 29.2 10 Sudeste 23 Sudeste 0 -- -- 48
2019-08-03 14:00:00 29.9 9 Sudeste 21 Sudeste 0 -- -- 47
2019-08-03 13:00:00 30.4 8 Sudeste 19 Sudeste 0 -- -- 47
2019-08-03 12:00:00 30.1 8 Sur 15 Sur 0 -- -- 49
2019-08-03 11:00:00 29.9 8 Sur 14 Sudeste 0 -- -- 42
2019-08-03 10:00:00 27.1 6 Oeste 14 Oeste 0 -- -- 58
2019-08-03 09:00:00 23.9 4 Sudoeste 12 Oeste 0 -- -- 67
2019-08-03 08:00:00 20.3 6 Oeste 14 Oeste 0 -- -- 78
2019-08-03 07:00:00 19.3 5 Oeste 12 Oeste 0 -- -- 81
2019-08-03 06:00:00 19.5 4 Oeste 12 Oeste 0 -- -- 80
2019-08-03 05:00:00 19.4 5 Oeste 12 Oeste 0 -- -- 80
2019-08-03 04:00:00 20 5 Oeste 9 Oeste 0 -- -- 79
2019-08-03 03:00:00 20.1 3 Oeste 12 Sudoeste 0 -- -- 78
2019-08-03 02:00:00 20.8 4 Oeste 11 Oeste 0 -- -- 73
2019-08-03 01:00:00 21.5 5 Sudoeste 12 Sudoeste 0 -- -- 70
2019-08-03 00:00:00 22.7 4 Oeste 8 Oeste 0 -- -- 69
2019-08-02 23:00:00 23.8 3 Oeste 9 Oeste 0 -- -- 65
2019-08-02 22:00:00 25.7 2 Oeste 7 Oeste 0 -- -- 61
2019-08-02 21:00:00 27.8 4 Oeste 11 Sudoeste 0 -- -- 55
2019-08-02 20:00:00 28.8 5 Sur 13 Sudoeste 0 -- -- 48
2019-08-02 19:00:00 29.7 8 Sur 20 Sur 0 -- -- 47
2019-08-02 18:00:00 29.9 9 Sur 21 Sudoeste 0 -- -- 50
2019-08-02 17:00:00 29.7 12 Sur 25 Sudeste 0 -- -- 48
2019-08-02 16:00:00 30.1 6 Este 19 Sudeste 0 -- -- 49
2019-08-02 15:00:00 30.7 12 Sudeste 21 Este 0 -- -- 43
2019-08-02 14:00:00 30.6 9 Este 20 Sudeste 0 -- -- 46
2019-08-02 13:00:00 30.7 8 Este 19 Noroeste 0 -- -- 44
2019-08-02 12:00:00 30.3 10 Norte 24 Nordeste 0 -- -- 39
2019-08-02 11:00:00 29 8 Norte 25 Norte 0 -- -- 43
2019-08-02 10:00:00 27.3 6 Norte 18 Nordeste 0 -- -- 49
2019-08-02 09:00:00 23.2 5 Oeste 12 Oeste 0 -- -- 62
2019-08-02 08:00:00 19.7 4 Oeste 12 Oeste 0 -- -- 72
2019-08-02 07:00:00 18.5 5 Oeste 13 Sudoeste 0 -- -- 74
2019-08-02 06:00:00 18.6 4 Sudoeste 12 Oeste 0 -- -- 74
2019-08-02 05:00:00 19.1 5 Oeste 9 Oeste 0 -- -- 75
2019-08-02 04:00:00 19.3 4 Oeste 12 Sudoeste 0 -- -- 73
2019-08-02 03:00:00 19.1 4 Oeste 13 Sudoeste 0 -- -- 70
2019-08-02 02:00:00 19.7 5 Oeste 10 Oeste 0 -- -- 66
2019-08-02 01:00:00 20.9 3 Oeste 9 Oeste 0 -- -- 63
2019-08-02 00:00:00 22.9 0 Calma 13 Norte 0 -- -- 58
2019-08-01 23:00:00 24.1 4 Norte 13 Norte 0 -- -- 49
2019-08-01 22:00:00 23.5 3 Este 13 Este 0 -- -- 53
2019-08-01 21:00:00 24.3 6 Este 13 Sudeste 0 -- -- 60
2019-08-01 20:00:00 24.9 5 Este 16 Este 0 -- -- 57
2019-08-01 19:00:00 25.8 9 Este 27 Nordeste 0 -- -- 54
2019-08-01 18:00:00 26.7 11 Este 21 Sudeste 0 -- -- 55
2019-08-01 17:00:00 28.1 13 Este 24 Este 0 -- -- 50
2019-08-01 16:00:00 29.5 10 Este 28 Este 0 -- -- 39
2019-08-01 15:00:00 28.4 11 Este 27 Este 0 -- -- 44
2019-08-01 14:00:00 28.6 11 Este 24 Este 0 -- -- 46
2019-08-01 13:00:00 29.5 10 Este 25 Nordeste 0 -- -- 33
2019-08-01 12:00:00 28.5 6 Nordeste 24 Nordeste 0 -- -- 38
2019-08-01 11:00:00 27.1 9 Nordeste 23 Norte 0 -- -- 42
2019-08-01 10:00:00 25.9 9 Nordeste 24 Nordeste 0 -- -- 46
2019-08-01 09:00:00 24.4 9 Nordeste 28 Norte 0 -- -- 50
2019-08-01 08:00:00 21 5 Noroeste 13 Norte 0 -- -- 64
2019-08-01 07:00:00 19.4 5 Noroeste 13 Sudoeste 0 -- -- 79
2019-08-01 06:00:00 18.7 5 Oeste 10 Oeste 0 -- -- 85
2019-08-01 05:00:00 18.4 4 Oeste 11 Oeste 0 -- -- 87
2019-08-01 04:00:00 19.2 6 Oeste 11 Oeste 0 -- -- 83
2019-08-01 03:00:00 19.7 3 Oeste 10 Oeste 0 -- -- 80
2019-08-01 02:00:00 19.9 4 Oeste 15 Oeste 0 -- -- 78
2019-08-01 01:00:00 20.4 4 Sudoeste 14 Oeste 0 -- -- 75
2019-08-01 00:00:00 20.2 4 Oeste 11 Oeste 0 -- -- 76
2019-07-31 23:00:00 21.2 3 Oeste 6 Oeste 0 -- -- 72
2019-07-31 22:00:00 22.3 2 Sudoeste 5 Noroeste 0 -- -- 68
2019-07-31 21:00:00 24.2 0 Calma 7 Este 0 -- -- 61
2019-07-31 20:00:00 24.8 4 Este 12 Este 0 -- -- 56
2019-07-31 19:00:00 25.4 7 Este 15 Nordeste 0 -- -- 52
2019-07-31 18:00:00 25.7 8 Este 19 Este 0 -- -- 53
2019-07-31 17:00:00 25.9 10 Este 20 Este 0 -- -- 55
2019-07-31 16:00:00 26 11 Este 23 Este 0 -- -- 56
2019-07-31 15:00:00 26.3 13 Este 24 Nordeste 0 -- -- 51
2019-07-31 14:00:00 26.4 11 Este 27 Este 0 -- -- 57
2019-07-31 13:00:00 25.9 13 Este 28 Este 0 -- -- 56
2019-07-31 12:00:00 25.8 10 Este 24 Nordeste 0 -- -- 56
2019-07-31 11:00:00 25.4 9 Este 19 Este 0 -- -- 56
2019-07-31 10:00:00 24.3 6 Norte 15 Nordeste 0 -- -- 54
2019-07-31 09:00:00 22.3 2 Norte 15 Noroeste 0 -- -- 57
2019-07-31 08:00:00 22.1 2 Este 13 Norte 0 -- -- 58
2019-07-31 07:00:00 21.3 4 Sudoeste 18 Noroeste 0 -- -- 58
2019-07-31 06:00:00 21.1 3 Sur 11 Sudoeste 0 -- -- 59
2019-07-31 05:00:00 20 5 Oeste 12 Oeste 0 -- -- 70
2019-07-31 04:00:00 20 4 Oeste 12 Oeste 0 -- -- 66
2019-07-31 03:00:00 20.2 4 Oeste 15 Oeste 0 -- -- 68
2019-07-31 02:00:00 20.7 2 Sudoeste 9 Sudoeste 0 -- -- 68
2019-07-31 01:00:00 21.2 4 Oeste 15 Noroeste 0 -- -- 65
2019-07-31 00:00:00 22.7 5 Oeste 20 Noroeste 0 -- -- 57
2019-07-30 23:00:00 23.7 9 Noroeste 27 Norte 0 -- -- 53
2019-07-30 22:00:00 24.3 10 Norte 22 Nordeste 0 -- -- 52
2019-07-30 21:00:00 25.6 6 Norte 15 Norte 0 -- -- 53
2019-07-30 20:00:00 25.8 6 Este 14 Nordeste 0 -- -- 66
2019-07-30 19:00:00 26.6 6 Este 21 Este 0 -- -- 64
2019-07-30 18:00:00 26.7 10 Este 21 Este 0 -- -- 63
2019-07-30 17:00:00 27.1 13 Este 24 Este 0 -- -- 60
2019-07-30 16:00:00 27.6 11 Este 24 Este 0 -- -- 60
2019-07-30 15:00:00 27.9 8 Este 19 Sudeste 0 -- -- 60
2019-07-30 14:00:00 27.5 8 Sudeste 20 Este 0 -- -- 65
2019-07-30 13:00:00 26.9 12 Este 28 Este 0 -- -- 62
2019-07-30 12:00:00 28 10 Sudeste 22 Sudeste 0 -- -- 69
2019-07-30 11:00:00 28.1 7 Norte 21 Nordeste 0 -- -- 65
2019-07-30 10:00:00 26.4 7 Noroeste 12 Oeste 0 -- -- 56
2019-07-30 09:00:00 23.8 8 Oeste 13 Oeste 0 -- -- 82
2019-07-30 08:00:00 21 4 Oeste 10 Sudoeste 0 -- -- 97
2019-07-30 07:00:00 20.7 2 Noroeste 8 Oeste 0 -- -- 97
2019-07-30 06:00:00 21 4 Oeste 9 Oeste 0 -- -- 97
2019-07-30 05:00:00 21 4 Oeste 10 Oeste 0 -- -- 96
2019-07-30 04:00:00 20.9 3 Oeste 9 Oeste 0 -- -- 96
2019-07-30 03:00:00 21.2 3 Sudoeste 10 Oeste 0 -- -- 95
2019-07-30 02:00:00 21.7 2 Sudoeste 8 Oeste 0 -- -- 94
2019-07-30 01:00:00 22.4 2 Oeste 8 Oeste 0 -- -- 92
2019-07-30 00:00:00 23 2 Sudoeste 8 Oeste 0 -- -- 89
2019-07-29 23:00:00 24.1 0 Calma 5 Oeste 0 -- -- 87
2019-07-29 22:00:00 25.1 0 Calma 8 Oeste 0 -- -- 84
2019-07-29 21:00:00 26 3 Sur 14 Sudoeste 0 -- -- 83
2019-07-29 20:00:00 26.7 6 Sur 21 Sur 0 -- -- 78
2019-07-29 19:00:00 27.7 6 Sur 24 Sudoeste 0 -- -- 74
2019-07-29 18:00:00 28 10 Sudoeste 30 Sur 0 -- -- 72
2019-07-29 17:00:00 27.8 16 Sur 30 Sur 0 -- -- 71
2019-07-29 16:00:00 27.8 14 Sudoeste 29 Sudoeste 0 -- -- 68
2019-07-29 15:00:00 27.4 12 Sur 22 Sur 0 -- -- 67
2019-07-29 14:00:00 27 9 Sur 25 Sur 0 -- -- 64
2019-07-29 13:00:00 26.7 10 Sur 24 Sur 0 -- -- 62
2019-07-29 12:00:00 25.9 10 Este 21 Sudeste 0 -- -- 59
2019-07-29 11:00:00 25.6 8 Este 18 Este 0 -- -- 58
2019-07-29 10:00:00 23.7 3 Noroeste 13 Oeste 0 -- -- 65
2019-07-29 09:00:00 21.1 5 Oeste 11 Oeste 0 -- -- 75
2019-07-29 08:00:00 17.6 4 Oeste 13 Oeste 0 -- -- 91
2019-07-29 07:00:00 16.7 5 Oeste 12 Oeste 0 -- -- 93
2019-07-29 06:00:00 16.3 4 Oeste 10 Oeste 0 -- -- 94
2019-07-29 05:00:00 16.7 5 Oeste 12 Oeste 0 -- -- 94
2019-07-29 04:00:00 17 4 Oeste 11 Oeste 0 -- -- 94
2019-07-29 03:00:00 17.3 4 Oeste 10 Oeste 0 -- -- 94
2019-07-29 02:00:00 18.5 3 Sudoeste 10 Oeste 0 -- -- 92
2019-07-29 01:00:00 19.4 7 Oeste 13 Oeste 0 -- -- 86
2019-07-29 00:00:00 20.9 3 Sudoeste 9 Oeste 0 -- -- 80
2019-07-28 23:00:00 22.8 2 Oeste 10 Sur 0 -- -- 74
2019-07-28 22:00:00 23.6 3 Sudeste 9 Sur 0 -- -- 71
2019-07-28 21:00:00 24.1 4 Sudeste 15 Sudeste 0 -- -- 65
2019-07-28 20:00:00 24.8 8 Sudeste 22 Sudeste 0 -- -- 61
2019-07-28 19:00:00 25.6 11 Sudeste 24 Sudeste 0 -- -- 63
2019-07-28 18:00:00 26.1 9 Sur 26 Sur 0 -- -- 55
2019-07-28 17:00:00 26.6 11 Sur 28 Sur 0 -- -- 54
2019-07-28 16:00:00 26.5 15 Sur 26 Sudoeste 0 -- -- 56
2019-07-28 15:00:00 27.2 10 Sur 23 Sudeste 0 -- -- 58
2019-07-28 14:00:00 26.9 12 Sur 22 Sudeste 0 -- -- 57
2019-07-28 13:00:00 26.3 11 Sur 19 Sudeste 0 -- -- 59
2019-07-28 12:00:00 25.3 5 Nordeste 17 Este 0 -- -- 56
2019-07-28 11:00:00 24.6 8 Este 15 Este 0 -- -- 60
2019-07-28 10:00:00 23.2 4 Este 9 Este 0 -- -- 68
2019-07-28 09:00:00 19.6 4 Oeste 9 Oeste 0 -- -- 90
2019-07-28 08:00:00 17.4 3 Sudoeste 16 Oeste 0 -- -- 96
2019-07-28 07:00:00 15.9 4 Sudoeste 13 Oeste 0 -- -- 97
2019-07-28 06:00:00 16.1 5 Sudoeste 12 Sudoeste 0 -- -- 97
2019-07-28 05:00:00 16.4 4 Oeste 9 Oeste 0 -- -- 97
2019-07-28 04:00:00 16.7 4 Oeste 13 Oeste 0 -- -- 96
2019-07-28 03:00:00 17 7 Oeste 13 Noroeste 0 -- -- 97
2019-07-28 02:00:00 16.8 2 Sudoeste 14 Sudoeste 0 -- -- 97
2019-07-28 01:00:00 17 5 Oeste 12 Oeste 0 -- -- 96
2019-07-28 00:00:00 17.5 4 Oeste 11 Oeste 0 -- -- 94
2019-07-27 23:00:00 18.1 4 Norte 8 Norte 0.2 -- -- 94
2019-07-26 12:00:00 -- -- -- -- -- -- -- -- --
2019-07-26 11:00:00 28.9 7 Sudeste 15 Este 0 -- -- 72
2019-07-26 10:00:00 27.5 5 Este 10 Este 0 -- -- 80
2019-07-26 09:00:00 24.2 2 Oeste 8 Sudoeste 0 -- -- 83
2019-07-26 08:00:00 21.4 3 Oeste 9 Oeste 0 -- -- 90
2019-07-26 07:00:00 20.4 3 Oeste 8 Oeste 0 -- -- 94
2019-07-26 06:00:00 20.4 5 Oeste 9 Oeste 0 -- -- 92
2019-07-26 05:00:00 21 3 Oeste 8 Oeste 0 -- -- 93
2019-07-26 04:00:00 21.9 2 Oeste 6 Oeste 0 -- -- 91
2019-07-26 03:00:00 23.3 3 Oeste 10 Sur 0 -- -- 88
2019-07-26 02:00:00 25.3 4 Sur 14 Sudoeste 0 -- -- 91
2019-07-26 01:00:00 25.6 7 Sur 18 Sudoeste 0 -- -- 90
2019-07-26 00:00:00 25.8 8 Sur 23 Sudoeste 0 -- -- 88